Aviation Digital Data Service (ADDS)

Output produced by METARs form (1330 UTC 21 August 2019)
found at http://www.aviationweather.gov/metar/data/
 
METAR text: OIFM 211300Z 05016KT CAVOK 34/M05 Q1018 A3007
Conditions at: OIFM (ESFAHAN S B INTL, IR) observed 1300 UTC 21 August 2019
Temperature: 34.0°C (93°F)
Dewpoint: -5.0°C (23°F) [RH =  8%]
Pressure (altimeter): 30.06 inches Hg (1018.0 mb)
Winds: from the NE (50 degrees) at 18 MPH (16 knots; 8.2 m/s)
Visibility: 6 or more miles (10+ km)
Ceiling: ceiling and visibility are OK
Clouds: unknown
Weather: no significant weather observed at this time

METAR text: OIFM 211230Z 05014KT CAVOK 34/M04 Q1018 A3007
Conditions at: OIFM (ESFAHAN S B INTL, IR) observed 1230 UTC 21 August 2019
Temperature: 34.0°C (93°F)
Dewpoint: -4.0°C (25°F) [RH =  9%]
Pressure (altimeter): 30.06 inches Hg (1018.0 mb)
Winds: from the NE (50 degrees) at 16 MPH (14 knots; 7.2 m/s)
Visibility: 6 or more miles (10+ km)
Ceiling: ceiling and visibility are OK
Clouds: unknown
Weather: no significant weather observed at this time

METAR text: OIFM 211200Z 02016KT CAVOK 36/M03 Q1018 A3008
Conditions at: OIFM (ESFAHAN S B INTL, IR) observed 1200 UTC 21 August 2019
Temperature: 36.0°C (97°F)
Dewpoint: -3.0°C (27°F) [RH =  8%]
Pressure (altimeter): 30.06 inches Hg (1018.0 mb)
Winds: from the NNE (20 degrees) at 18 MPH (16 knots; 8.2 m/s)
Visibility: 6 or more miles (10+ km)
Ceiling: ceiling and visibility are OK
Clouds: unknown
Weather: no significant weather observed at this time

METAR text: OIFM 211130Z 23006KT CAVOK 34/M04 Q1018 A3008
Conditions at: OIFM (ESFAHAN S B INTL, IR) observed 1130 UTC 21 August 2019
Temperature: 34.0°C (93°F)
Dewpoint: -4.0°C (25°F) [RH =  9%]
Pressure (altimeter): 30.06 inches Hg (1018.0 mb)
Winds: from the SW (230 degrees) at 7 MPH (6 knots; 3.1 m/s)
Visibility: 6 or more miles (10+ km)
Ceiling: ceiling and visibility are OK
Clouds: unknown
Weather: no significant weather observed at this time

METAR text: OIFM 211100Z 00000KT CAVOK 34/M04 Q1018 A3009
Conditions at: OIFM (ESFAHAN S B INTL, IR) observed 1100 UTC 21 August 2019
Temperature: 34.0°C (93°F)
Dewpoint: -4.0°C (25°F) [RH =  9%]
Pressure (altimeter): 30.06 inches Hg (1018.0 mb)
Winds: calm
Visibility: 6 or more miles (10+ km)
Ceiling: ceiling and visibility are OK
Clouds: unknown
Weather: no significant weather observed at this time

METAR text: OIFM 211030Z 29010KT CAVOK 34/M05 Q1019 A3010
Conditions at: OIFM (ESFAHAN S B INTL, IR) observed 1030 UTC 21 August 2019
Temperature: 34.0°C (93°F)
Dewpoint: -5.0°C (23°F) [RH =  8%]
Pressure (altimeter): 30.09 inches Hg (1019.0 mb)
Winds: from the WNW (290 degrees) at 12 MPH (10 knots; 5.1 m/s)
Visibility: 6 or more miles (10+ km)
Ceiling: ceiling and visibility are OK
Clouds: unknown
Weather: no significant weather observed at this time

METAR text: OIFM 211000Z 00000KT CAVOK 33/M04 Q1019 A3012
Conditions at: OIFM (ESFAHAN S B INTL, IR) observed 1000 UTC 21 August 2019
Temperature: 33.0°C (91°F)
Dewpoint: -4.0°C (25°F) [RH =  9%]
Pressure (altimeter): 30.09 inches Hg (1019.0 mb)
Winds: calm
Visibility: 6 or more miles (10+ km)
Ceiling: ceiling and visibility are OK
Clouds: unknown
Weather: no significant weather observed at this time

METAR text: OIFM 210930Z 31008KT CAVOK 32/M03 Q1020 A3013
Conditions at: OIFM (ESFAHAN S B INTL, IR) observed 0930 UTC 21 August 2019
Temperature: 32.0°C (90°F)
Dewpoint: -3.0°C (27°F) [RH = 10%]
Pressure (altimeter): 30.12 inches Hg (1020.0 mb)
Winds: from the NW (310 degrees) at 9 MPH (8 knots; 4.1 m/s)
Visibility: 6 or more miles (10+ km)
Ceiling: ceiling and visibility are OK
Clouds: unknown
Weather: no significant weather observed at this time

METAR text: OIFM 210900Z 30006KT CAVOK 32/M03 Q1020 A3015
Conditions at: OIFM (ESFAHAN S B INTL, IR) observed 0900 UTC 21 August 2019
Temperature: 32.0°C (90°F)
Dewpoint: -3.0°C (27°F) [RH = 10%]
Pressure (altimeter): 30.12 inches Hg (1020.0 mb)
Winds: from the WNW (300 degrees) at 7 MPH (6 knots; 3.1 m/s)
Visibility: 6 or more miles (10+ km)
Ceiling: ceiling and visibility are OK
Clouds: unknown
Weather: no significant weather observed at this time

METAR text: OIFM 210830Z 30006KT CAVOK 31/M03 Q1021 A3016
Conditions at: OIFM (ESFAHAN S B INTL, IR) observed 0830 UTC 21 August 2019
Temperature: 31.0°C (88°F)
Dewpoint: -3.0°C (27°F) [RH = 11%]
Pressure (altimeter): 30.15 inches Hg (1021.0 mb)
Winds: from the WNW (300 degrees) at 7 MPH (6 knots; 3.1 m/s)
Visibility: 6 or more miles (10+ km)
Ceiling: ceiling and visibility are OK
Clouds: unknown
Weather: no significant weather observed at this time

METAR text: OIFM 210800Z 19004KT CAVOK 31/M03 Q1021 A3017
Conditions at: OIFM (ESFAHAN S B INTL, IR) observed 0800 UTC 21 August 2019
Temperature: 31.0°C (88°F)
Dewpoint: -3.0°C (27°F) [RH = 11%]
Pressure (altimeter): 30.15 inches Hg (1021.0 mb)
Winds: from the S (190 degrees) at 5 MPH (4 knots; 2.1 m/s)
Visibility: 6 or more miles (10+ km)
Ceiling: ceiling and visibility are OK
Clouds: unknown
Weather: no significant weather observed at this time

METAR text: OIFM 210730Z 23008KT CAVOK 31/M03 Q1022 A3018
Conditions at: OIFM (ESFAHAN S B INTL, IR) observed 0730 UTC 21 August 2019
Temperature: 31.0°C (88°F)
Dewpoint: -3.0°C (27°F) [RH = 11%]
Pressure (altimeter): 30.18 inches Hg (1022.0 mb)
Winds: from the SW (230 degrees) at 9 MPH (8 knots; 4.1 m/s)
Visibility: 6 or more miles (10+ km)
Ceiling: ceiling and visibility are OK
Clouds: unknown
Weather: no significant weather observed at this time

METAR text: OIFM 210700Z 00000KT CAVOK 29/M03 Q1022 A3019
Conditions at: OIFM (ESFAHAN S B INTL, IR) observed 0700 UTC 21 August 2019
Temperature: 29.0°C (84°F)
Dewpoint: -3.0°C (27°F) [RH = 12%]
Pressure (altimeter): 30.18 inches Hg (1022.0 mb)
Winds: calm
Visibility: 6 or more miles (10+ km)
Ceiling: ceiling and visibility are OK
Clouds: unknown
Weather: no significant weather observed at this time

METAR text: OIFM 210630Z 24006KT CAVOK 28/M01 Q1022 A3020
Conditions at: OIFM (ESFAHAN S B INTL, IR) observed 0630 UTC 21 August 2019
Temperature: 28.0°C (82°F)
Dewpoint: -1.0°C (30°F) [RH = 15%]
Pressure (altimeter): 30.18 inches Hg (1022.0 mb)
Winds: from the WSW (240 degrees) at 7 MPH (6 knots; 3.1 m/s)
Visibility: 6 or more miles (10+ km)
Ceiling: ceiling and visibility are OK
Clouds: unknown
Weather: no significant weather observed at this time

METAR text: OIFM 210600Z 30004KT CAVOK 27/M01 Q1022 A3020
Conditions at: OIFM (ESFAHAN S B INTL, IR) observed 0600 UTC 21 August 2019
Temperature: 27.0°C (81°F)
Dewpoint: -1.0°C (30°F) [RH = 16%]
Pressure (altimeter): 30.18 inches Hg (1022.0 mb)
Winds: from the WNW (300 degrees) at 5 MPH (4 knots; 2.1 m/s)
Visibility: 6 or more miles (10+ km)
Ceiling: ceiling and visibility are OK
Clouds: unknown
Weather: no significant weather observed at this time

METAR text: OIFM 210530Z 28006KT CAVOK 25/M02 Q1022 A3020
Conditions at: OIFM (ESFAHAN S B INTL, IR) observed 0530 UTC 21 August 2019
Temperature: 25.0°C (77°F)
Dewpoint: -2.0°C (28°F) [RH = 17%]
Pressure (altimeter): 30.18 inches Hg (1022.0 mb)
Winds: from the W (280 degrees) at 7 MPH (6 knots; 3.1 m/s)
Visibility: 6 or more miles (10+ km)
Ceiling: ceiling and visibility are OK
Clouds: unknown
Weather: no significant weather observed at this time

METAR text: OIFM 210500Z 31004KT CAVOK 24/M02 Q1022 A3020
Conditions at: OIFM (ESFAHAN S B INTL, IR) observed 0500 UTC 21 August 2019
Temperature: 24.0°C (75°F)
Dewpoint: -2.0°C (28°F) [RH = 18%]
Pressure (altimeter): 30.18 inches Hg (1022.0 mb)
Winds: from the NW (310 degrees) at 5 MPH (4 knots; 2.1 m/s)
Visibility: 6 or more miles (10+ km)
Ceiling: ceiling and visibility are OK
Clouds: unknown
Weather: no significant weather observed at this time

METAR text: OIFM 210430Z 30006KT 5000 HZ NSC 22/M02 Q1022 A3020
Conditions at: OIFM (ESFAHAN S B INTL, IR) observed 0430 UTC 21 August 2019
Temperature: 22.0°C (72°F)
Dewpoint: -2.0°C (28°F) [RH = 20%]
Pressure (altimeter): 30.18 inches Hg (1022.0 mb)
Winds: from the WNW (300 degrees) at 7 MPH (6 knots; 3.1 m/s)
Visibility: 3 miles ( 5 km)
Ceiling: at least 12,000 feet AGL
Clouds: sky clear below 12,000 feet AGL
Weather: HZ  (haze)

METAR text: OIFM 210400Z 31004KT 3000 HZ NSC 20/M01 Q1022 A3020
Conditions at: OIFM (ESFAHAN S B INTL, IR) observed 0400 UTC 21 August 2019
Temperature: 20.0°C (68°F)
Dewpoint: -1.0°C (30°F) [RH = 24%]
Pressure (altimeter): 30.18 inches Hg (1022.0 mb)
Winds: from the NW (310 degrees) at 5 MPH (4 knots; 2.1 m/s)
Visibility: 1.86 miles (2.99 km)
Ceiling: at least 12,000 feet AGL
Clouds: sky clear below 12,000 feet AGL
Weather: HZ  (haze)

METAR text: OIFM 210330Z 26004KT 2700 HZ NSC 19/M03 Q1022 A3019
Conditions at: OIFM (ESFAHAN S B INTL, IR) observed 0330 UTC 21 August 2019
Temperature: 19.0°C (66°F)
Dewpoint: -3.0°C (27°F) [RH = 22%]
Pressure (altimeter): 30.18 inches Hg (1022.0 mb)
Winds: from the W (260 degrees) at 5 MPH (4 knots; 2.1 m/s)
Visibility: 1.68 miles (2.70 km)
Ceiling: at least 12,000 feet AGL
Clouds: sky clear below 12,000 feet AGL
Weather: HZ  (haze)

METAR text: OIFM 210300Z 30004KT 6000 NSC 15/M04 Q1021 A3018
Conditions at: OIFM (ESFAHAN S B INTL, IR) observed 0300 UTC 21 August 2019
Temperature: 15.0°C (59°F)
Dewpoint: -4.0°C (25°F) [RH = 27%]
Pressure (altimeter): 30.15 inches Hg (1021.0 mb)
Winds: from the WNW (300 degrees) at 5 MPH (4 knots; 2.1 m/s)
Visibility: 4 miles ( 6 km)
Ceiling: at least 12,000 feet AGL
Clouds: sky clear below 12,000 feet AGL
Weather: no significant weather observed at this time

METAR text: OIFM 210230Z 26006KT 9000 NSC 12/M06 Q1021 A3017
Conditions at: OIFM (ESFAHAN S B INTL, IR) observed 0230 UTC 21 August 2019
Temperature: 12.0°C (54°F)
Dewpoint: -6.0°C (21°F) [RH = 28%]
Pressure (altimeter): 30.15 inches Hg (1021.0 mb)
Winds: from the W (260 degrees) at 7 MPH (6 knots; 3.1 m/s)
Visibility: 6 miles ( 9 km)
Ceiling: at least 12,000 feet AGL
Clouds: sky clear below 12,000 feet AGL
Weather: no significant weather observed at this time

METAR text: OIFM 210200Z 22004KT CAVOK 12/M05 Q1021 A3017
Conditions at: OIFM (ESFAHAN S B INTL, IR) observed 0200 UTC 21 August 2019
Temperature: 12.0°C (54°F)
Dewpoint: -5.0°C (23°F) [RH = 30%]
Pressure (altimeter): 30.15 inches Hg (1021.0 mb)
Winds: from the SW (220 degrees) at 5 MPH (4 knots; 2.1 m/s)
Visibility: 6 or more miles (10+ km)
Ceiling: ceiling and visibility are OK
Clouds: unknown
Weather: no significant weather observed at this time

METAR text: OIFM 210130Z 36004KT CAVOK 14/M06 Q1021 A3016
Conditions at: OIFM (ESFAHAN S B INTL, IR) observed 0130 UTC 21 August 2019
Temperature: 14.0°C (57°F)
Dewpoint: -6.0°C (21°F) [RH = 24%]
Pressure (altimeter): 30.15 inches Hg (1021.0 mb)
Winds: from the N (360 degrees) at 5 MPH (4 knots; 2.1 m/s)
Visibility: 6 or more miles (10+ km)
Ceiling: ceiling and visibility are OK
Clouds: unknown
Weather: no significant weather observed at this time

METAR text: OIFM 210100Z 02004KT CAVOK 15/M06 Q1021 A3016
Conditions at: OIFM (ESFAHAN S B INTL, IR) observed 0100 UTC 21 August 2019
Temperature: 15.0°C (59°F)
Dewpoint: -6.0°C (21°F) [RH = 23%]
Pressure (altimeter): 30.15 inches Hg (1021.0 mb)
Winds: from the NNE (20 degrees) at 5 MPH (4 knots; 2.1 m/s)
Visibility: 6 or more miles (10+ km)
Ceiling: ceiling and visibility are OK
Clouds: unknown
Weather: no significant weather observed at this time

METAR text: OIFM 210030Z 03004KT CAVOK 16/M05 Q1021 A3015
Conditions at: OIFM (ESFAHAN S B INTL, IR) observed 0030 UTC 21 August 2019
Temperature: 16.0°C (61°F)
Dewpoint: -5.0°C (23°F) [RH = 23%]
Pressure (altimeter): 30.15 inches Hg (1021.0 mb)
Winds: from the NNE (30 degrees) at 5 MPH (4 knots; 2.1 m/s)
Visibility: 6 or more miles (10+ km)
Ceiling: ceiling and visibility are OK
Clouds: unknown
Weather: no significant weather observed at this time

METAR text: OIFM 210000Z 05004KT CAVOK 17/M05 Q1021 A3016
Conditions at: OIFM (ESFAHAN S B INTL, IR) observed 0000 UTC 21 August 2019
Temperature: 17.0°C (63°F)
Dewpoint: -5.0°C (23°F) [RH = 22%]
Pressure (altimeter): 30.15 inches Hg (1021.0 mb)
Winds: from the NE (50 degrees) at 5 MPH (4 knots; 2.1 m/s)
Visibility: 6 or more miles (10+ km)
Ceiling: ceiling and visibility are OK
Clouds: unknown
Weather: no significant weather observed at this time

METAR text: OIFM 202330Z 03006KT CAVOK 16/M06 Q1021 A3016
Conditions at: OIFM (ESFAHAN S B INTL, IR) observed 2330 UTC 20 August 2019
Temperature: 16.0°C (61°F)
Dewpoint: -6.0°C (21°F) [RH = 21%]
Pressure (altimeter): 30.15 inches Hg (1021.0 mb)
Winds: from the NNE (30 degrees) at 7 MPH (6 knots; 3.1 m/s)
Visibility: 6 or more miles (10+ km)
Ceiling: ceiling and visibility are OK
Clouds: unknown
Weather: no significant weather observed at this time

METAR text: OIFM 202300Z 01006KT CAVOK 17/M05 Q1021 A3016
Conditions at: OIFM (ESFAHAN S B INTL, IR) observed 2300 UTC 20 August 2019
Temperature: 17.0°C (63°F)
Dewpoint: -5.0°C (23°F) [RH = 22%]
Pressure (altimeter): 30.15 inches Hg (1021.0 mb)
Winds: from the N (10 degrees) at 7 MPH (6 knots; 3.1 m/s)
Visibility: 6 or more miles (10+ km)
Ceiling: ceiling and visibility are OK
Clouds: unknown
Weather: no significant weather observed at this time

METAR text: OIFM 202230Z 03004KT CAVOK 18/M05 Q1021 A3016
Conditions at: OIFM (ESFAHAN S B INTL, IR) observed 2230 UTC 20 August 2019
Temperature: 18.0°C (64°F)
Dewpoint: -5.0°C (23°F) [RH = 20%]
Pressure (altimeter): 30.15 inches Hg (1021.0 mb)
Winds: from the NNE (30 degrees) at 5 MPH (4 knots; 2.1 m/s)
Visibility: 6 or more miles (10+ km)
Ceiling: ceiling and visibility are OK
Clouds: unknown
Weather: no significant weather observed at this time

METAR text: OIFM 202200Z 00000KT CAVOK 20/M05 Q1021 A3016
Conditions at: OIFM (ESFAHAN S B INTL, IR) observed 2200 UTC 20 August 2019
Temperature: 20.0°C (68°F)
Dewpoint: -5.0°C (23°F) [RH = 18%]
Pressure (altimeter): 30.15 inches Hg (1021.0 mb)
Winds: calm
Visibility: 6 or more miles (10+ km)
Ceiling: ceiling and visibility are OK
Clouds: unknown
Weather: no significant weather observed at this time

METAR text: OIFM 202130Z 15004KT CAVOK 23/M06 Q1021 A3015
Conditions at: OIFM (ESFAHAN S B INTL, IR) observed 2130 UTC 20 August 2019
Temperature: 23.0°C (73°F)
Dewpoint: -6.0°C (21°F) [RH = 14%]
Pressure (altimeter): 30.15 inches Hg (1021.0 mb)
Winds: from the SSE (150 degrees) at 5 MPH (4 knots; 2.1 m/s)
Visibility: 6 or more miles (10+ km)
Ceiling: ceiling and visibility are OK
Clouds: unknown
Weather: no significant weather observed at this time

METAR text: OIFM 202100Z 17006KT CAVOK 23/M05 Q1021 A3015
Conditions at: OIFM (ESFAHAN S B INTL, IR) observed 2100 UTC 20 August 2019
Temperature: 23.0°C (73°F)
Dewpoint: -5.0°C (23°F) [RH = 15%]
Pressure (altimeter): 30.15 inches Hg (1021.0 mb)
Winds: from the S (170 degrees) at 7 MPH (6 knots; 3.1 m/s)
Visibility: 6 or more miles (10+ km)
Ceiling: ceiling and visibility are OK
Clouds: unknown
Weather: no significant weather observed at this time

METAR text: OIFM 202030Z 16004KT CAVOK 23/M03 Q1021 A3016
Conditions at: OIFM (ESFAHAN S B INTL, IR) observed 2030 UTC 20 August 2019
Temperature: 23.0°C (73°F)
Dewpoint: -3.0°C (27°F) [RH = 17%]
Pressure (altimeter): 30.15 inches Hg (1021.0 mb)
Winds: from the SSE (160 degrees) at 5 MPH (4 knots; 2.1 m/s)
Visibility: 6 or more miles (10+ km)
Ceiling: ceiling and visibility are OK
Clouds: unknown
Weather: no significant weather observed at this time

METAR text: OIFM 202000Z 18006KT CAVOK 24/M05 Q1021 A3016
Conditions at: OIFM (ESFAHAN S B INTL, IR) observed 2000 UTC 20 August 2019
Temperature: 24.0°C (75°F)
Dewpoint: -5.0°C (23°F) [RH = 14%]
Pressure (altimeter): 30.15 inches Hg (1021.0 mb)
Winds: from the S (180 degrees) at 7 MPH (6 knots; 3.1 m/s)
Visibility: 6 or more miles (10+ km)
Ceiling: ceiling and visibility are OK
Clouds: unknown
Weather: no significant weather observed at this time

METAR text: OIFM 201930Z 18004KT CAVOK 25/M04 Q1021 A3016
Conditions at: OIFM (ESFAHAN S B INTL, IR) observed 1930 UTC 20 August 2019
Temperature: 25.0°C (77°F)
Dewpoint: -4.0°C (25°F) [RH = 14%]
Pressure (altimeter): 30.15 inches Hg (1021.0 mb)
Winds: from the S (180 degrees) at 5 MPH (4 knots; 2.1 m/s)
Visibility: 6 or more miles (10+ km)
Ceiling: ceiling and visibility are OK
Clouds: unknown
Weather: no significant weather observed at this time

METAR text: OIFM 201900Z 18004KT CAVOK 25/M04 Q1021 A3015
Conditions at: OIFM (ESFAHAN S B INTL, IR) observed 1900 UTC 20 August 2019
Temperature: 25.0°C (77°F)
Dewpoint: -4.0°C (25°F) [RH = 14%]
Pressure (altimeter): 30.15 inches Hg (1021.0 mb)
Winds: from the S (180 degrees) at 5 MPH (4 knots; 2.1 m/s)
Visibility: 6 or more miles (10+ km)
Ceiling: ceiling and visibility are OK
Clouds: unknown
Weather: no significant weather observed at this time

METAR text: OIFM 201830Z 15006KT CAVOK 25/M05 Q1021 A3015
Conditions at: OIFM (ESFAHAN S B INTL, IR) observed 1830 UTC 20 August 2019
Temperature: 25.0°C (77°F)
Dewpoint: -5.0°C (23°F) [RH = 13%]
Pressure (altimeter): 30.15 inches Hg (1021.0 mb)
Winds: from the SSE (150 degrees) at 7 MPH (6 knots; 3.1 m/s)
Visibility: 6 or more miles (10+ km)
Ceiling: ceiling and visibility are OK
Clouds: unknown
Weather: no significant weather observed at this time

METAR text: OIFM 201800Z 12004KT CAVOK 27/M06 Q1020 A3015
Conditions at: OIFM (ESFAHAN S B INTL, IR) observed 1800 UTC 20 August 2019
Temperature: 27.0°C (81°F)
Dewpoint: -6.0°C (21°F) [RH = 11%]
Pressure (altimeter): 30.12 inches Hg (1020.0 mb)
Winds: from the ESE (120 degrees) at 5 MPH (4 knots; 2.1 m/s)
Visibility: 6 or more miles (10+ km)
Ceiling: ceiling and visibility are OK
Clouds: unknown
Weather: no significant weather observed at this time

METAR text: OIFM 201730Z 04006KT CAVOK 27/M06 Q1020 A3014
Conditions at: OIFM (ESFAHAN S B INTL, IR) observed 1730 UTC 20 August 2019
Temperature: 27.0°C (81°F)
Dewpoint: -6.0°C (21°F) [RH = 11%]
Pressure (altimeter): 30.12 inches Hg (1020.0 mb)
Winds: from the NE (40 degrees) at 7 MPH (6 knots; 3.1 m/s)
Visibility: 6 or more miles (10+ km)
Ceiling: ceiling and visibility are OK
Clouds: unknown
Weather: no significant weather observed at this time

METAR text: OIFM 201700Z 05006KT CAVOK 28/M07 Q1020 A3013
Conditions at: OIFM (ESFAHAN S B INTL, IR) observed 1700 UTC 20 August 2019
Temperature: 28.0°C (82°F)
Dewpoint: -7.0°C (19°F) [RH = 10%]
Pressure (altimeter): 30.12 inches Hg (1020.0 mb)
Winds: from the NE (50 degrees) at 7 MPH (6 knots; 3.1 m/s)
Visibility: 6 or more miles (10+ km)
Ceiling: ceiling and visibility are OK
Clouds: unknown
Weather: no significant weather observed at this time

METAR text: OIFM 201630Z 04010KT CAVOK 29/M08 Q1020 A3012
Conditions at: OIFM (ESFAHAN S B INTL, IR) observed 1630 UTC 20 August 2019
Temperature: 29.0°C (84°F)
Dewpoint: -8.0°C (18°F) [RH =  8%]
Pressure (altimeter): 30.12 inches Hg (1020.0 mb)
Winds: from the NE (40 degrees) at 12 MPH (10 knots; 5.1 m/s)
Visibility: 6 or more miles (10+ km)
Ceiling: ceiling and visibility are OK
Clouds: unknown
Weather: no significant weather observed at this time

METAR text: OIFM 201600Z 04010KT CAVOK 29/M07 Q1019 A3011
Conditions at: OIFM (ESFAHAN S B INTL, IR) observed 1600 UTC 20 August 2019
Temperature: 29.0°C (84°F)
Dewpoint: -7.0°C (19°F) [RH =  9%]
Pressure (altimeter): 30.09 inches Hg (1019.0 mb)
Winds: from the NE (40 degrees) at 12 MPH (10 knots; 5.1 m/s)
Visibility: 6 or more miles (10+ km)
Ceiling: ceiling and visibility are OK
Clouds: unknown
Weather: no significant weather observed at this time

METAR text: OIFM 201530Z 04010KT CAVOK 31/M08 Q1019 A3011
Conditions at: OIFM (ESFAHAN S B INTL, IR) observed 1530 UTC 20 August 2019
Temperature: 31.0°C (88°F)
Dewpoint: -8.0°C (18°F) [RH =  7%]
Pressure (altimeter): 30.09 inches Hg (1019.0 mb)
Winds: from the NE (40 degrees) at 12 MPH (10 knots; 5.1 m/s)
Visibility: 6 or more miles (10+ km)
Ceiling: ceiling and visibility are OK
Clouds: unknown
Weather: no significant weather observed at this time

METAR text: OIFM 201500Z 03010KT CAVOK 32/M07 Q1019 A3010
Conditions at: OIFM (ESFAHAN S B INTL, IR) observed 1500 UTC 20 August 2019
Temperature: 32.0°C (90°F)
Dewpoint: -7.0°C (19°F) [RH =  8%]
Pressure (altimeter): 30.09 inches Hg (1019.0 mb)
Winds: from the NNE (30 degrees) at 12 MPH (10 knots; 5.1 m/s)
Visibility: 6 or more miles (10+ km)
Ceiling: ceiling and visibility are OK
Clouds: unknown
Weather: no significant weather observed at this time

METAR text: OIFM 201430Z 04010KT CAVOK 34/M06 Q1019 A3009
Conditions at: OIFM (ESFAHAN S B INTL, IR) observed 1430 UTC 20 August 2019
Temperature: 34.0°C (93°F)
Dewpoint: -6.0°C (21°F) [RH =  7%]
Pressure (altimeter): 30.09 inches Hg (1019.0 mb)
Winds: from the NE (40 degrees) at 12 MPH (10 knots; 5.1 m/s)
Visibility: 6 or more miles (10+ km)
Ceiling: ceiling and visibility are OK
Clouds: unknown
Weather: no significant weather observed at this time

METAR text: OIFM 201400Z 01012KT CAVOK 35/M08 Q1019 A3009
Conditions at: OIFM (ESFAHAN S B INTL, IR) observed 1400 UTC 20 August 2019
Temperature: 35.0°C (95°F)
Dewpoint: -8.0°C (18°F) [RH =  6%]
Pressure (altimeter): 30.09 inches Hg (1019.0 mb)
Winds: from the N (10 degrees) at 14 MPH (12 knots; 6.2 m/s)
Visibility: 6 or more miles (10+ km)
Ceiling: ceiling and visibility are OK
Clouds: unknown
Weather: no significant weather observed at this time

METAR text: OIFM 201330Z 30004KT CAVOK 35/M06 Q1018 A3009
Conditions at: OIFM (ESFAHAN S B INTL, IR) observed 1330 UTC 20 August 2019
Temperature: 35.0°C (95°F)
Dewpoint: -6.0°C (21°F) [RH =  7%]
Pressure (altimeter): 30.06 inches Hg (1018.0 mb)
Winds: from the WNW (300 degrees) at 5 MPH (4 knots; 2.1 m/s)
Visibility: 6 or more miles (10+ km)
Ceiling: ceiling and visibility are OK
Clouds: unknown
Weather: no significant weather observed at this time

METAR text: OIFM 201300Z 32006KT CAVOK 34/M06 Q1019 A3009
Conditions at: OIFM (ESFAHAN S B INTL, IR) observed 1300 UTC 20 August 2019
Temperature: 34.0°C (93°F)
Dewpoint: -6.0°C (21°F) [RH =  7%]
Pressure (altimeter): 30.09 inches Hg (1019.0 mb)
Winds: from the NW (320 degrees) at 7 MPH (6 knots; 3.1 m/s)
Visibility: 6 or more miles (10+ km)
Ceiling: ceiling and visibility are OK
Clouds: unknown
Weather: no significant weather observed at this time

METAR text: OIFM 201230Z 35004KT CAVOK 35/M06 Q1019 A3010
Conditions at: OIFM (ESFAHAN S B INTL, IR) observed 1230 UTC 20 August 2019
Temperature: 35.0°C (95°F)
Dewpoint: -6.0°C (21°F) [RH =  7%]
Pressure (altimeter): 30.09 inches Hg (1019.0 mb)
Winds: from the N (350 degrees) at 5 MPH (4 knots; 2.1 m/s)
Visibility: 6 or more miles (10+ km)
Ceiling: ceiling and visibility are OK
Clouds: unknown
Weather: no significant weather observed at this time

METAR text: OIFM 201200Z 04006KT CAVOK 35/M06 Q1019 A3010
Conditions at: OIFM (ESFAHAN S B INTL, IR) observed 1200 UTC 20 August 2019
Temperature: 35.0°C (95°F)
Dewpoint: -6.0°C (21°F) [RH =  7%]
Pressure (altimeter): 30.09 inches Hg (1019.0 mb)
Winds: from the NE (40 degrees) at 7 MPH (6 knots; 3.1 m/s)
Visibility: 6 or more miles (10+ km)
Ceiling: ceiling and visibility are OK
Clouds: unknown
Weather: no significant weather observed at this time

METAR text: OIFM 201130Z 01010KT CAVOK 35/M06 Q1019 A3011
Conditions at: OIFM (ESFAHAN S B INTL, IR) observed 1130 UTC 20 August 2019
Temperature: 35.0°C (95°F)
Dewpoint: -6.0°C (21°F) [RH =  7%]
Pressure (altimeter): 30.09 inches Hg (1019.0 mb)
Winds: from the N (10 degrees) at 12 MPH (10 knots; 5.1 m/s)
Visibility: 6 or more miles (10+ km)
Ceiling: ceiling and visibility are OK
Clouds: unknown
Weather: no significant weather observed at this time

METAR text: OIFM 201100Z 13004KT CAVOK 34/M06 Q1019 A3012
Conditions at: OIFM (ESFAHAN S B INTL, IR) observed 1100 UTC 20 August 2019
Temperature: 34.0°C (93°F)
Dewpoint: -6.0°C (21°F) [RH =  7%]
Pressure (altimeter): 30.09 inches Hg (1019.0 mb)
Winds: from the SE (130 degrees) at 5 MPH (4 knots; 2.1 m/s)
Visibility: 6 or more miles (10+ km)
Ceiling: ceiling and visibility are OK
Clouds: unknown
Weather: no significant weather observed at this time

METAR text: OIFM 201030Z 36010KT CAVOK 35/M05 Q1020 A3013
Conditions at: OIFM (ESFAHAN S B INTL, IR) observed 1030 UTC 20 August 2019
Temperature: 35.0°C (95°F)
Dewpoint: -5.0°C (23°F) [RH =  7%]
Pressure (altimeter): 30.12 inches Hg (1020.0 mb)
Winds: from the N (360 degrees) at 12 MPH (10 knots; 5.1 m/s)
Visibility: 6 or more miles (10+ km)
Ceiling: ceiling and visibility are OK
Clouds: unknown
Weather: no significant weather observed at this time

METAR text: OIFM 201000Z 11004KT CAVOK 34/M04 Q1020 A3014
Conditions at: OIFM (ESFAHAN S B INTL, IR) observed 1000 UTC 20 August 2019
Temperature: 34.0°C (93°F)
Dewpoint: -4.0°C (25°F) [RH =  9%]
Pressure (altimeter): 30.12 inches Hg (1020.0 mb)
Winds: from the ESE (110 degrees) at 5 MPH (4 knots; 2.1 m/s)
Visibility: 6 or more miles (10+ km)
Ceiling: ceiling and visibility are OK
Clouds: unknown
Weather: no significant weather observed at this time

METAR text: OIFM 200930Z 00000KT CAVOK 34/M03 Q1020 A3015
Conditions at: OIFM (ESFAHAN S B INTL, IR) observed 0930 UTC 20 August 2019
Temperature: 34.0°C (93°F)
Dewpoint: -3.0°C (27°F) [RH =  9%]
Pressure (altimeter): 30.12 inches Hg (1020.0 mb)
Winds: calm
Visibility: 6 or more miles (10+ km)
Ceiling: ceiling and visibility are OK
Clouds: unknown
Weather: no significant weather observed at this time

METAR text: OIFM 200900Z 28004KT CAVOK 33/M05 Q1021 A3016
Conditions at: OIFM (ESFAHAN S B INTL, IR) observed 0900 UTC 20 August 2019
Temperature: 33.0°C (91°F)
Dewpoint: -5.0°C (23°F) [RH =  8%]
Pressure (altimeter): 30.15 inches Hg (1021.0 mb)
Winds: from the W (280 degrees) at 5 MPH (4 knots; 2.1 m/s)
Visibility: 6 or more miles (10+ km)
Ceiling: ceiling and visibility are OK
Clouds: unknown
Weather: no significant weather observed at this time

METAR text: OIFM 200830Z 20006KT CAVOK 33/M05 Q1021 A3017
Conditions at: OIFM (ESFAHAN S B INTL, IR) observed 0830 UTC 20 August 2019
Temperature: 33.0°C (91°F)
Dewpoint: -5.0°C (23°F) [RH =  8%]
Pressure (altimeter): 30.15 inches Hg (1021.0 mb)
Winds: from the SSW (200 degrees) at 7 MPH (6 knots; 3.1 m/s)
Visibility: 6 or more miles (10+ km)
Ceiling: ceiling and visibility are OK
Clouds: unknown
Weather: no significant weather observed at this time

METAR text: OIFM 200800Z 28004KT CAVOK 32/M04 Q1022 A3018
Conditions at: OIFM (ESFAHAN S B INTL, IR) observed 0800 UTC 20 August 2019
Temperature: 32.0°C (90°F)
Dewpoint: -4.0°C (25°F) [RH = 10%]
Pressure (altimeter): 30.18 inches Hg (1022.0 mb)
Winds: from the W (280 degrees) at 5 MPH (4 knots; 2.1 m/s)
Visibility: 6 or more miles (10+ km)
Ceiling: ceiling and visibility are OK
Clouds: unknown
Weather: no significant weather observed at this time

METAR text: OIFM 200730Z 29006KT CAVOK 32/M04 Q1022 A3019
Conditions at: OIFM (ESFAHAN S B INTL, IR) observed 0730 UTC 20 August 2019
Temperature: 32.0°C (90°F)
Dewpoint: -4.0°C (25°F) [RH = 10%]
Pressure (altimeter): 30.18 inches Hg (1022.0 mb)
Winds: from the WNW (290 degrees) at 7 MPH (6 knots; 3.1 m/s)
Visibility: 6 or more miles (10+ km)
Ceiling: ceiling and visibility are OK
Clouds: unknown
Weather: no significant weather observed at this time

METAR text: OIFM 200700Z 27006KT CAVOK 30/M03 Q1022 A3021
Conditions at: OIFM (ESFAHAN S B INTL, IR) observed 0700 UTC 20 August 2019
Temperature: 30.0°C (86°F)
Dewpoint: -3.0°C (27°F) [RH = 12%]
Pressure (altimeter): 30.18 inches Hg (1022.0 mb)
Winds: from the W (270 degrees) at 7 MPH (6 knots; 3.1 m/s)
Visibility: 6 or more miles (10+ km)
Ceiling: ceiling and visibility are OK
Clouds: unknown
Weather: no significant weather observed at this time

METAR text: OIFM 200630Z 25006KT CAVOK 30/M03 Q1022 A3021
Conditions at: OIFM (ESFAHAN S B INTL, IR) observed 0630 UTC 20 August 2019
Temperature: 30.0°C (86°F)
Dewpoint: -3.0°C (27°F) [RH = 12%]
Pressure (altimeter): 30.18 inches Hg (1022.0 mb)
Winds: from the WSW (250 degrees) at 7 MPH (6 knots; 3.1 m/s)
Visibility: 6 or more miles (10+ km)
Ceiling: ceiling and visibility are OK
Clouds: unknown
Weather: no significant weather observed at this time

METAR text: OIFM 200600Z 27004KT CAVOK 28/M03 Q1023 A3021
Conditions at: OIFM (ESFAHAN S B INTL, IR) observed 0600 UTC 20 August 2019
Temperature: 28.0°C (82°F)
Dewpoint: -3.0°C (27°F) [RH = 13%]
Pressure (altimeter): 30.21 inches Hg (1023.0 mb)
Winds: from the W (270 degrees) at 5 MPH (4 knots; 2.1 m/s)
Visibility: 6 or more miles (10+ km)
Ceiling: ceiling and visibility are OK
Clouds: unknown
Weather: no significant weather observed at this time

METAR text: OIFM 200530Z 27004KT CAVOK 27/M05 Q1023 A3021
Conditions at: OIFM (ESFAHAN S B INTL, IR) observed 0530 UTC 20 August 2019
Temperature: 27.0°C (81°F)
Dewpoint: -5.0°C (23°F) [RH = 12%]
Pressure (altimeter): 30.21 inches Hg (1023.0 mb)
Winds: from the W (270 degrees) at 5 MPH (4 knots; 2.1 m/s)
Visibility: 6 or more miles (10+ km)
Ceiling: ceiling and visibility are OK
Clouds: unknown
Weather: no significant weather observed at this time

METAR text: OIFM 200500Z 28004KT CAVOK 24/M04 Q1022 A3021
Conditions at: OIFM (ESFAHAN S B INTL, IR) observed 0500 UTC 20 August 2019
Temperature: 24.0°C (75°F)
Dewpoint: -4.0°C (25°F) [RH = 15%]
Pressure (altimeter): 30.18 inches Hg (1022.0 mb)
Winds: from the W (280 degrees) at 5 MPH (4 knots; 2.1 m/s)
Visibility: 6 or more miles (10+ km)
Ceiling: ceiling and visibility are OK
Clouds: unknown
Weather: no significant weather observed at this time

METAR text: OIFM 200430Z 29004KT CAVOK 23/M04 Q1022 A3021
Conditions at: OIFM (ESFAHAN S B INTL, IR) observed 0430 UTC 20 August 2019
Temperature: 23.0°C (73°F)
Dewpoint: -4.0°C (25°F) [RH = 16%]
Pressure (altimeter): 30.18 inches Hg (1022.0 mb)
Winds: from the WNW (290 degrees) at 5 MPH (4 knots; 2.1 m/s)
Visibility: 6 or more miles (10+ km)
Ceiling: ceiling and visibility are OK
Clouds: unknown
Weather: no significant weather observed at this time

METAR text: OIFM 200400Z 30004KT CAVOK 20/M04 Q1022 A3020
Conditions at: OIFM (ESFAHAN S B INTL, IR) observed 0400 UTC 20 August 2019
Temperature: 20.0°C (68°F)
Dewpoint: -4.0°C (25°F) [RH = 19%]
Pressure (altimeter): 30.18 inches Hg (1022.0 mb)
Winds: from the WNW (300 degrees) at 5 MPH (4 knots; 2.1 m/s)
Visibility: 6 or more miles (10+ km)
Ceiling: ceiling and visibility are OK
Clouds: unknown
Weather: no significant weather observed at this time

METAR text: OIFM 200330Z 29004KT 9000 NSC 19/M03 Q1022 A3020
Conditions at: OIFM (ESFAHAN S B INTL, IR) observed 0330 UTC 20 August 2019
Temperature: 19.0°C (66°F)
Dewpoint: -3.0°C (27°F) [RH = 22%]
Pressure (altimeter): 30.18 inches Hg (1022.0 mb)
Winds: from the WNW (290 degrees) at 5 MPH (4 knots; 2.1 m/s)
Visibility: 6 miles ( 9 km)
Ceiling: at least 12,000 feet AGL
Clouds: sky clear below 12,000 feet AGL
Weather: no significant weather observed at this time

METAR text: OIFM 200300Z 27004KT CAVOK 14/M06 Q1022 A3019
Conditions at: OIFM (ESFAHAN S B INTL, IR) observed 0300 UTC 20 August 2019
Temperature: 14.0°C (57°F)
Dewpoint: -6.0°C (21°F) [RH = 24%]
Pressure (altimeter): 30.18 inches Hg (1022.0 mb)
Winds: from the W (270 degrees) at 5 MPH (4 knots; 2.1 m/s)
Visibility: 6 or more miles (10+ km)
Ceiling: ceiling and visibility are OK
Clouds: unknown
Weather: no significant weather observed at this time

METAR text: OIFM 200230Z 23004KT CAVOK 12/M09 Q1022 A3018
Conditions at: OIFM (ESFAHAN S B INTL, IR) observed 0230 UTC 20 August 2019
Temperature: 12.0°C (54°F)
Dewpoint: -9.0°C (16°F) [RH = 22%]
Pressure (altimeter): 30.18 inches Hg (1022.0 mb)
Winds: from the SW (230 degrees) at 5 MPH (4 knots; 2.1 m/s)
Visibility: 6 or more miles (10+ km)
Ceiling: ceiling and visibility are OK
Clouds: unknown
Weather: no significant weather observed at this time

METAR text: OIFM 200200Z 02004KT CAVOK 16/M05 Q1021 A3017
Conditions at: OIFM (ESFAHAN S B INTL, IR) observed 0200 UTC 20 August 2019
Temperature: 16.0°C (61°F)
Dewpoint: -5.0°C (23°F) [RH = 23%]
Pressure (altimeter): 30.15 inches Hg (1021.0 mb)
Winds: from the NNE (20 degrees) at 5 MPH (4 knots; 2.1 m/s)
Visibility: 6 or more miles (10+ km)
Ceiling: ceiling and visibility are OK
Clouds: unknown
Weather: no significant weather observed at this time

Forecast for: OIFM (ESFAHAN S B INTL, IR)
Text: TAF OIFM 211100Z 2112/2218 31004KT 7000 NSC
Forecast period: 1200 UTC 21 August 2019 to 0100 UTC 22 August 2019
Forecast type: FROM: standard forecast or significant change
Winds: from the NW (310 degrees) at 5 MPH (4 knots; 2.1 m/s)
Visibility: 4 miles (7 km)
Ceiling: unknown
Clouds: missing
Weather: no significant weather forecast for this period
Text: BECMG 2201/2203 3000 HZ NSC
Forecast period: 0100 to 0700 UTC 22 August 2019
Forecast type: BECOMING: Conditions expected to become as follows by 0300 UTC 22 August 2019
Winds: from the NW (310 degrees) at 5 MPH (4 knots; 2.1 m/s)
Visibility: 1.86 miles (2.99 km)
Ceiling: unknown
Clouds: missing
Weather: HZ  (haze)
Text: BECMG 2207/2209 7000 NSC
Forecast period: 0700 to 1800 UTC 22 August 2019
Forecast type: BECOMING: Conditions expected to become as follows by 0900 UTC 22 August 2019
Winds: from the NW (310 degrees) at 5 MPH (4 knots; 2.1 m/s)
Visibility: 4 miles (7 km)
Ceiling: unknown
Clouds: missing
Weather: HZ  (haze)